»·PEaware :: QXE2217 KLAX-KPSP

QXE2217 :: KLAX-KPSP

FLIGHT INFORMATION

Flight Status: Arrived
Operator:
Horizon Air
More flights by this operator :: More flights under this callsign
Pilot: Anonymous 16342 (16342)
Aircraft: DEHAVILLAND DASH 8 400
(DH8D)
More flights by this aircraft type
Origin: KLAX Los Angeles Intl
United States
Destination: KPSP Palm Springs Intl
United States
More flights between these airports :: More routes between these airports
Route: SLI8 SLI V64 TRM
File this flight plan on PilotEdge
Remarks:
Altitude:
(Current/Filed)
13,000ft
Speed:
(Current/Filed)
271kts
Departed: 10-Apr-19 03:57 PM
Arrived: 10-Apr-19 04:37 PM
Distance/Time
Traveled:
95nm/0:40
Distance/Time
To Go:
Arrived

Flight Plot

Page will automatically refresh every two minutes.

Flight plan parsing failed; only flown route is shown


Map Options




Map Legend


Flown Route
Filed Route
Departure Airport
Arrival Airport
Navaid (VOR, NDB)
Fix

Horizontal Profiles

Position Reports

Time Latitude Longitude Heading Altitude Ground
Speed
10-Apr-19 15:43 33.942138 -118.402841 83 133ft 0kts
10-Apr-19 15:44 33.942138 -118.402841 83 133ft 0kts
10-Apr-19 15:45 33.942138 -118.402841 83 133ft 0kts
10-Apr-19 15:46 33.942138 -118.402841 83 133ft 0kts
10-Apr-19 15:47 33.942138 -118.402841 83 133ft 0kts
10-Apr-19 15:48 33.942125 -118.403067 93 133ft 2kts
10-Apr-19 15:49 33.942221 -118.403419 136 133ft 0kts
10-Apr-19 15:50 33.942087 -118.403341 158 133ft 6kts
10-Apr-19 15:51 33.939947 -118.403172 176 133ft 9kts
10-Apr-19 15:52 33.938753 -118.399989 83 133ft 17kts
10-Apr-19 15:53 33.939438 -118.393369 82 133ft 18kts
10-Apr-19 15:54 33.940115 -118.387041 82 133ft 17kts
10-Apr-19 15:55 33.940662 -118.381517 81 133ft 13kts
10-Apr-19 15:56 33.940649 -118.380734 110 133ft 0kts
10-Apr-19 15:57 33.939396 -118.384030 261 134ft 69kts
10-Apr-19 15:58 33.934466 -118.432473 262 1802ft 169kts
10-Apr-19 15:59 33.899873 -118.477153 213 4320ft 202kts
10-Apr-19 16:00 33.850941 -118.514032 213 7055ft 213kts
10-Apr-19 16:01 33.789182 -118.518886 172 9529ft 236kts
10-Apr-19 16:02 33.744642 -118.473893 74 11714ft 220kts
10-Apr-19 16:03 33.751790 -118.395401 68 12984ft 270kts
10-Apr-19 16:03 33.759943 -118.320309 71 12997ft 315kts
10-Apr-19 16:05 33.771840 -118.192232 73 12989ft 345kts
10-Apr-19 16:06 33.781268 -118.081766 74 12964ft 355kts
10-Apr-19 16:07 33.777155 -117.963129 87 12961ft 363kts
10-Apr-19 16:08 33.767558 -117.850989 85 12948ft 340kts
10-Apr-19 16:08 33.761131 -117.761239 84 12983ft 331kts
10-Apr-19 16:10 33.752217 -117.643117 85 12981ft 329kts
10-Apr-19 16:10 33.745214 -117.553135 85 12982ft 336kts
10-Apr-19 16:11 33.736487 -117.442861 85 12976ft 342kts
10-Apr-19 16:13 33.726038 -117.312156 86 12978ft 343kts
10-Apr-19 16:13 33.718563 -117.218437 86 12982ft 345kts
10-Apr-19 16:15 33.707670 -117.085642 87 13041ft 345kts
10-Apr-19 16:15 33.699883 -116.990214 87 13073ft 346kts
10-Apr-19 16:16 33.690710 -116.880879 87 13053ft 349kts
10-Apr-19 16:17 33.683659 -116.765681 83 13022ft 343kts
10-Apr-19 16:18 33.673819 -116.652854 90 12572ft 333kts
10-Apr-19 16:19 33.663433 -116.553038 89 10704ft 283kts
10-Apr-19 16:20 33.677295 -116.473513 37 8708ft 229kts
10-Apr-19 16:21 33.720887 -116.424554 36 7044ft 191kts
10-Apr-19 16:22 33.756719 -116.382899 34 7032ft 198kts
10-Apr-19 16:23 33.794654 -116.330543 57 6150ft 202kts
10-Apr-19 16:24 33.799778 -116.266484 96 6046ft 208kts
10-Apr-19 16:25 33.764323 -116.209329 147 5633ft 235kts
10-Apr-19 16:26 33.702481 -116.199237 201 4944ft 225kts
10-Apr-19 16:27 33.657792 -116.238721 245 4235ft 189kts
10-Apr-19 16:28 33.645017 -116.290039 277 4024ft 145kts
10-Apr-19 16:29 33.654834 -116.336136 303 4072ft 143kts
10-Apr-19 16:30 33.681615 -116.371131 323 3898ft 144kts
10-Apr-19 16:31 33.713961 -116.401006 324 2958ft 142kts
10-Apr-19 16:32 33.742183 -116.426954 323 2600ft 115kts
10-Apr-19 16:33 33.768941 -116.451739 323 1875ft 129kts
10-Apr-19 16:34 33.795516 -116.476140 322 1202ft 121kts
10-Apr-19 16:35 33.822285 -116.501141 320 502ft 112kts
10-Apr-19 16:36 33.828943 -116.508093 251 484ft 0kts
10-Apr-19 16:37 33.828946 -116.508085 251 484ft 0kts
10-Apr-19 16:38 33.828875 -116.508211 227 484ft 5kts
10-Apr-19 16:39 33.825735 -116.506279 160 484ft 14kts
10-Apr-19 16:40 33.822222 -116.505605 235 484ft 15kts
10-Apr-19 16:41 33.821767 -116.507062 225 484ft 0kts
10-Apr-19 16:42 33.821767 -116.507062 225 484ft 0kts
10-Apr-19 16:43 33.821767 -116.507062 225 484ft 0kts
10-Apr-19 16:44 33.821767 -116.507062 225 484ft 0kts

Navigation Log

Ident Type
Flight plan parsing failed, navigation log unavailable